logo
Games tagged World War I
# Game Release date
Price
Score rank
(Userscore / Metascore)
Owners
Players
Playtime (Median)
Developer(s)
Publisher(s)
1 The Last Express Gold Edition Mar 31, 1997 $2.79N/A (N/A/82%)50,000 .. 100,0000%00:00 (00:00)DotemuDotemu
2 Darkest Hour: A Hearts of Iron Game Apr 8, 2011 $9.99N/A (N/A/81%)200,000 .. 500,0000%00:00 (00:00)Martin IvanovParadox Interactive
3 Day of Defeat May 1, 2003 $4.99N/A (N/A/79%)1,000,000 .. 2,000,0000.8%00:23 (00:15)ValveValve
4 Rise of Flight United Sep 5, 2013 FreeN/A (N/A/77%)200,000 .. 500,0000%00:00 (00:00)777 Studios1C Game Studios
5 Iron Harvest Aug 31, 2020 $49.99N/A (N/A/75%)200,000 .. 500,00033.33%01:00 (00:40)KING ArtDeep Silver
6 Victoria II Aug 30, 2010 $19.99N/A (N/A/75%)500,000 .. 1,000,0002.86%05:31 (01:50)Paradox Development StudioParadox Interactive
7 To End All Wars Aug 29, 2014 $39.99N/A (N/A/71%)0 .. 20,0000%00:00 (00:00)AgeodSlitherine Ltd.
8 Toy Soldiers Apr 27, 2012 $9.99N/A (N/A/71%)200,000 .. 500,0000%00:00 (00:00)Signal StudiosSEGA
9 Verdun Apr 28, 2015 $19.99N/A (N/A/70%)1,000,000 .. 2,000,0001.52%03:28 (01:09)M2H, Blackmill GamesM2H
10 Iron Storm Oct 25, 2002 $0.5N/A (N/A/69%)20,000 .. 50,0000%00:00 (00:00)MicroidsMicroids
11 Tannenberg Nov 16, 2017 $19.99N/A (N/A/69%)200,000 .. 500,0003.45%01:13 (00:24)M2H, Blackmill GamesM2H
12 NecroVision May 20, 2009 $4.99N/A (N/A/63%)100,000 .. 200,0000%00:00 (00:00)The Farm 511C Entertainment
13 Mata Hari Nov 21, 2008 $9.99N/A (N/A/63%)50,000 .. 100,0000%00:00 (00:00)4Head StudiosViva Media
14 Wings! Remastered Edition Oct 17, 2014 $14.99N/A (N/A/61%)20,000 .. 50,0000%00:00 (00:00)CinemawareCinemaware
15 Darkest of Days Sep 2009 $19.99N/A (N/A/51%)20,000 .. 50,000NAN%00:00 (00:00)8monkey LabsPhantom EFX
16 Temporality Oct 7, 2014 FreeN/A (N/A)20,000 .. 50,000NAN%00:00 (00:00)James Earl Cox IIIJames Earl Cox III
17 Sid Meier’s Ace Patrol Aug 27, 2013 $4.99N/A (N/A)200,000 .. 500,0000%00:00 (00:00)Firaxis Games2K
18 Commander: The Great War Nov 12, 2012 $29.99N/A (N/A)20,000 .. 50,0000%00:00 (00:00)The Lordz Games StudioSlitherine Ltd.
19 Super Trench Attack! Jul 24, 2014 $4.99N/A (N/A)50,000 .. 100,0000%00:00 (00:00)Retro Army Limitedpaulstephendavis
20 Knights of the Sky Apr 1, 2015 $6.99N/A (N/A)0 .. 20,0000%00:00 (00:00)MicroProse Software, IncNightdive Studios, Retroism
21 Valiant Hearts: The Great War / Soldats Inconnus : Mémoires de la Grande Guerre Jun 25, 2014 $14.99N/A (N/A)500,000 .. 1,000,0000%00:00 (00:00)Ubisoft MontpellierUbisoft
22 Spirit of War Mar 12, 2015 $9.99N/A (N/A)20,000 .. 50,0000%00:00 (00:00)G-OLDPlug In Digital
23 Making History: The Great War Jan 29, 2015 $29.99N/A (N/A)20,000 .. 50,0000%00:00 (00:00)Muzzy Lane Software, Factus GamesFactus Games
24 Aggression: Europe Under Fire May 10, 2007 $9.99N/A (N/A)50,000 .. 100,0000%00:00 (00:00)Lesta StudioBuka Entertainment
25 Supreme Ruler Ultimate Oct 17, 2014 $19.99N/A (N/A)50,000 .. 100,0000%00:00 (00:00)BattleGoat StudiosBattleGoat Studios
26 Call of Cthulhu: The Wasted Land Mar 4, 2012 N/AN/A (N/A)20,000 .. 50,0000%00:00 (00:00)Red Wasp Design LtdRed Wasp Design Ltd
27 Beyond The Wire Oct 21, 2020 $34.99N/A (N/A)20,000 .. 50,0000%00:00 (00:00)Redstone InteractiveOffworld Industries
28 LemWars Oct 14, 2020 $4.99N/A (N/A)0 .. 20,000NAN%00:00 (00:00)ILYA GUBINILYA GUBIN
29 Making History: The First World War Sep 4, 2020 $19.99N/A (N/A)0 .. 20,000NAN%00:00 (00:00)Factus GamesFactus Games
30 The Entente Gold Aug 11, 2003 $1.99N/A (N/A)50,000 .. 100,0000%00:00 (00:00)Lesta StudioBuka Entertainment
31 Tactical Warfare Simulator Dec 21, 2020 $49.99N/A (N/A)0 .. 20,000NAN%00:00 (00:00)Hollow World Games llcHollow World Games llc
32 Strategic Command Classic: WWI Mar 1, 2011 $19.99N/A (N/A)0 .. 20,000NAN%00:00 (00:00)Fury SoftwareSlitherine Ltd.
33 Tiny Toy Tanks Oct 25, 2020 FreeN/A (N/A)50,000 .. 100,000NAN%00:00 (00:00)Retro GearsRetro Gears
34 Dwarves & Dungeons Nov 19, 2020 $3.99N/A (N/A)20,000 .. 50,000NAN%00:00 (00:00)SmileBoySmileBoy
35 NecroVisioN: Lost Company Feb 19, 2010 $6.99N/A (N/A)100,000 .. 200,0000%00:00 (00:00)The Farm 511C Entertainment
36 Under: Depths of Fear Oct 26, 2020 $16.99N/A (N/A)0 .. 20,000NAN%00:00 (00:00)Globiss InteractiveRogue Games, Inc., Gamera Game
37 Supremacy 1914: World War 1 Jul 16, 2019 FreeN/A (N/A)100,000 .. 200,000NAN%00:00 (00:00)Bytro Labs GmbHBytro Labs GmbH
38 Within Whispers: The Fall Mar 20, 2020 $14.99N/A (N/A)0 .. 20,000NAN%00:00 (00:00)Thorium GamesThorium Games
39 Armored Battle Crew [World War 1] - Tank Warfare and Crew Management Simulator Jun 5, 2019 $19.99N/A (N/A)0 .. 20,000NAN%00:00 (00:00)Gattai GamesGattai Games
40 Frontline: Panzer Blitzkrieg! Mar 6, 2020 $9.99N/A (N/A)0 .. 20,000NAN%00:00 (00:00)Frontline: Games SeriesFrontline: Games Series
41 AIR Battlefront May 6, 2019 $6.99N/A (N/A)0 .. 20,000NAN%00:00 (00:00)SRS GamesSRS Games
42 Strategic Command: World War I Dec 5, 2019 $39.99N/A (N/A)0 .. 20,0000%00:00 (00:00)Fury SoftwareSlitherine Ltd.
43 Grunt1914 May 1, 2019 $11.99N/A (N/A)0 .. 20,000NAN%00:00 (00:00)Aligned GamesAligned Games
44 Race With Ryan Nov 1, 2019 $29.99N/A (N/A)0 .. 20,000NAN%00:00 (00:00)3DCloudsOutright Games LTD.
45 7n7 Jul 31, 2020 $1.99N/A (N/A)0 .. 20,000NAN%00:00 (00:00)Igor UrbanikIgor Urbanik
46 I Love You, Colonel Sanders! A Finger Lickin’ Good Dating Simulator Sep 24, 2019 FreeN/A (N/A)200,000 .. 500,000NAN%00:00 (00:00)PsyopKFC
47 Battlefield 1 Oct 20, 2016 $39.99N/A (N/A)1,000,000 .. 2,000,00016.67%04:56 (04:30)DICEElectronic Arts
48 Warplanes: WW1 Sky Aces Sep 23, 2019 FreeN/A (N/A)100,000 .. 200,000NAN%00:00 (00:00)Home Net GamesHome Net Games
49 War Remains: Dan Carlin Presents an Immersive Memory May 21, 2020 $4.99N/A (N/A)0 .. 20,000NAN%00:00 (00:00)Flight School StudioMWM Interactive
50 TrenchesWIP Aug 17, 2019 FreeN/A (N/A)100,000 .. 200,000NAN%00:00 (00:00)Big OOF Games PTY LTD-
51 Chex Quest HD May 18, 2020 FreeN/A (N/A)100,000 .. 200,000NAN%00:00 (00:00)Team Chex Quest HD, Flight School StudioGeneral Mills
52 变量 Variables Jul 31, 2019 $14.99N/A (N/A)50,000 .. 100,0000%00:00 (00:00)Asteroid Game StudioAsteroid Game Studio
53 Fadeout: Underground May 18, 2020 FreeN/A (N/A)50,000 .. 100,000NAN%00:00 (00:00)Weston MitchellWeston Mitchell
54 To Burn in Memory (Anniversary Edition) Oct 1, 2018 $2.99N/A (N/A)0 .. 20,000NAN%00:00 (00:00)OrihausOrihaus
55 Scythe: Digital Edition Sep 5, 2018 $19.99N/A (N/A)200,000 .. 500,0000%00:00 (00:00)The Knights of UnityAsmodee Digital
56 The Operational Art of War IV Nov 15, 2017 $39.99N/A (N/A)0 .. 20,0000%00:00 (00:00)TrickeySoft LLCSlitherine Ltd.
57 Airships: Conquer the Skies Aug 16, 2018 $14.99N/A (N/A)200,000 .. 500,0000%00:00 (00:00)David StarkDavid Stark
58 Boom Island Oct 16, 2017 $0.99N/A (N/A)0 .. 20,000NAN%00:00 (00:00)Caden Goodwincsgood
59 Because We're Here - Act I Jul 19, 2018 $5.99N/A (N/A)0 .. 20,000NAN%00:00 (00:00)Studio ElfriedeStudio Elfriede
60 NAVYFIELD Mar 18, 2000 FreeN/A (N/A)200,000 .. 500,0000%00:00 (00:00)SDEnterNETNaiadgames
61 NavalArt Jun 20, 2018 $7.99N/A (N/A)20,000 .. 50,000NAN%00:00 (00:00)RigidbodyRig&Zig Entertainment
62 Chaordic Dec 17, 2018 FreeN/A (N/A)0 .. 20,000NAN%00:00 (00:00)Artepi CorporationArtepi Corporation
63 REVOLT 1917 Apr 11, 2018 $1.99N/A (N/A)0 .. 20,000NAN%00:00 (00:00)juhbeejuhbee
64 Age of History II Nov 21, 2018 $4.99N/A (N/A)500,000 .. 1,000,0008.33%11:02 (03:40)Łukasz JakowskiŁukasz Jakowski Games
65 Cry of War / 战争号角 Feb 28, 2018 $3.99N/A (N/A)20,000 .. 50,0000%00:00 (00:00)ShanghaiWindy, 王诗江ShanghaiWindy
66 11-11 Memories Retold Nov 8, 2018 $29.99N/A (N/A)20,000 .. 50,0000%00:00 (00:00)Aardman Animations, DigixartBANDAI NAMCO Entertainment Europe
67 Comrades and Barons: Solitaire of Bloody 1919 Feb 8, 2018 $9.99N/A (N/A)0 .. 20,000NAN%00:00 (00:00)Maris OzolsMaris Ozols
68 On The Western Front Oct 5, 2018 $9.99N/A (N/A)0 .. 20,000NAN%00:00 (00:00)AggroblakhAggroblakh
69 Aircraft Evolution Jan 26, 2018 $7.99N/A (N/A)0 .. 20,0000%00:00 (00:00)Satur EntertainmentSatur Entertainment
70 Battle of Empires : 1914-1918 Jul 22, 2015 $8.99N/A (N/A)50,000 .. 100,0000%00:00 (00:00)Great War TeamBest Way Soft
71 Badiya: Desert Survival Nov 11, 2016 $19.99N/A (N/A)0 .. 20,000NAN%00:00 (00:00)SemaphoreSemaphore
72 Steam Squad Jul 28, 2016 $17.99N/A (N/A)20,000 .. 50,0000%00:00 (00:00)Bretwalda GamesBretwalda Games
73 The Lost Battalion: All Out Warfare Apr 23, 2015 $0.99N/A (N/A)20,000 .. 50,0000%00:00 (00:00)Jake OlsonImpartial Studios
74 WarBirds Dawn of Aces, World War I Air Combat Jul 19, 2016 $14.99N/A (N/A)0 .. 20,000NAN%00:00 (00:00)iEntertainment Network InciEntertainment Network Inc
75 World War I Apr 9, 2015 $4.99N/A (N/A)20,000 .. 50,0000%00:00 (00:00)Dark Fox1C Entertainment
76 1917 - The Alien Invasion DX Jun 10, 2016 $0.99N/A (N/A)0 .. 20,0000%00:00 (00:00)Andrade GamesOtakuMaker.com
77 Trivia Vault: Science & History Trivia 2 Sep 1, 2017 $0.99N/A (N/A)0 .. 20,0000%00:00 (00:00)Ripknot SystemsRipknot Systems
78 Toy Soldiers: Complete Feb 17, 2016 $14.99N/A (N/A)100,000 .. 200,0000%00:00 (00:00)Signal Studios, Krome StudiosSignal Studios
79 Supreme Ruler The Great War Aug 1, 2017 $19.99N/A (N/A)0 .. 20,0000%00:00 (00:00)BattleGoat StudiosBattleGoat Studios
80 Red Baron Pack Jan 7, 2016 $9.99N/A (N/A)0 .. 20,0000%00:00 (00:00)Mad Otter GamesMad Otter Games
81 Trenches of War Jul 6, 2017 FreeN/A (N/A)0 .. 20,0000%00:00 (00:00)Vashta EntertainmentVashta Entertainment
82 War of Beach Oct 15, 2015 FreeN/A (N/A)100,000 .. 200,0000%00:00 (00:00)LUCKY GIRLS LIMITEDLUCKY GIRLS LIMITED
83 Commands & Colors: The Great War Jan 19, 2017 $19.99N/A (N/A)0 .. 20,0000%00:00 (00:00)HexWar GamesHexWar Games
84 Frozen Free Fall: Snowball Fight Sep 15, 2015 N/AN/A (N/A)200,000 .. 500,0000%00:00 (00:00)SuperVillain StudiosDisney
85 UNO Dec 8, 2016 $9.99N/A (N/A)1,000,000 .. 2,000,0004.73%02:19 (01:24)Ubisoft EntertainmentUbisoft Entertainment
Overview

World War I

Games with this tag: 85
Average userscore: N/A%
Average metascore: 70.47%
Average playtime: 03:44
Total copies owned: 13,292,000
Average price: $14.61
Help

Owners: Estimated number of people owning this game. The number might be way too small for new releases and sometimes way too big for games that had free weekend event recently. Read more on About page.

Playtime: Average hours played in total per person that have actually launched this game since March 2009. This time is calculated for the whole lifetime, not for the particular year.

Average score: Average users and metacritic score for all games with this score assigned.

Average playtime: Average lifetime playtime for all games where this data is available.

Games in this genre: Self-explaining - number of games with this tag. Only inculdes games with sales data available.

Total copies owned: Refers to total copies of games with this tag acquired by users for the lifetime. Includes copies sold, downloaded for free and given out.

This number might be too small for recently released games or too big for games that had a free weekend in the last couple of months.

Graphs

Login required.

Please register or log in to see this information.

Login required.

Please register or log in to see this information.